Time;durP1;ratioP1;P1;durP2;ratioP2;P2;SDS_P1;SDS_P2;PMS_P1;PMS_P2;Temp;Humidity;BMP_temperature;BMP_pressure;BME280_temperature;BME280_humidity;BME280_pressure;Samples;Min_cycle;Max_cycle;Signal;HPM_P1;HPM_P2
2023/09/07 00:01:04;;;;;;;7.43;4.43;;;;;;;-141.50;100.00;63355.56;5045840;28;20056;-80
2023/09/07 00:03:31;;;;;;;7.40;4.68;;;;;;;-141.50;100.00;63355.56;5061976;28;20063;-79
2023/09/07 00:05:59;;;;;;;7.47;4.50;;;;;;;-141.50;100.00;63355.56;5060219;28;20045;-79
2023/09/07 00:08:25;;;;;;;8.50;4.00;;;;;;;-141.50;100.00;63355.56;5052766;28;20041;-79
2023/09/07 00:10:52;;;;;;;7.95;4.57;;;;;;;-141.50;100.00;63355.56;5028229;28;20037;-79
2023/09/07 00:13:19;;;;;;;8.20;4.72;;;;;;;-141.50;100.00;63355.56;5042960;28;20046;-79
2023/09/07 00:15:46;;;;;;;6.53;4.45;;;;;;;-141.50;100.00;63355.56;5061953;28;20114;-79
2023/09/07 00:18:13;;;;;;;6.85;4.60;;;;;;;-141.50;100.00;63355.56;5042417;28;20060;-79
2023/09/07 00:20:40;;;;;;;8.00;4.60;;;;;;;-141.50;100.00;63355.56;5040318;28;20414;-79
2023/09/07 00:23:07;;;;;;;6.50;4.25;;;;;;;-141.50;100.00;63355.56;5048060;28;20374;-78
2023/09/07 00:25:34;;;;;;;9.85;5.22;;;;;;;-141.50;100.00;63355.56;5054488;28;20572;-79
2023/09/07 00:28:01;;;;;;;7.88;4.30;;;;;;;-141.50;100.00;63355.56;5039593;28;20049;-78
2023/09/07 00:30:28;;;;;;;9.57;4.47;;;;;;;-141.50;100.00;63355.56;5039261;28;20083;-78
2023/09/07 00:32:55;;;;;;;7.30;4.45;;;;;;;-141.50;100.00;63355.56;5035904;28;20041;-78
2023/09/07 00:35:22;;;;;;;7.22;4.57;;;;;;;-141.50;100.00;63355.56;5038451;28;20045;-78
2023/09/07 00:37:48;;;;;;;8.80;4.72;;;;;;;-141.50;100.00;63355.56;5033276;28;20069;-78
2023/09/07 00:40:15;;;;;;;7.47;4.65;;;;;;;-141.50;100.00;63355.56;5023505;28;20056;-79
2023/09/07 00:42:42;;;;;;;6.75;4.32;;;;;;;-141.50;100.00;63355.56;5064652;28;20064;-80
2023/09/07 00:45:13;;;;;;;8.43;4.88;;;;;;;-141.50;100.00;63355.56;5043081;28;20104;-78
2023/09/07 00:47:40;;;;;;;8.45;4.72;;;;;;;-141.50;100.00;63355.56;5045357;28;20998;-78
2023/09/07 00:50:07;;;;;;;8.75;4.60;;;;;;;-141.50;100.00;63355.56;5040250;28;20053;-79
2023/09/07 00:52:35;;;;;;;7.28;4.57;;;;;;;-141.50;100.00;63355.56;5048547;28;20052;-79
2023/09/07 00:55:04;;;;;;;8.05;4.50;;;;;;;-141.50;100.00;63355.56;5049199;28;20049;-78
2023/09/07 00:57:35;;;;;;;6.13;4.25;;;;;;;-141.50;100.00;63355.56;5046678;28;20053;-79
2023/09/07 01:00:07;;;;;;;8.85;4.65;;;;;;;-141.50;100.00;63355.56;5045848;28;20060;-79
2023/09/07 01:02:35;;;;;;;9.23;5.40;;;;;;;-141.50;100.00;63355.56;5037090;28;20052;-79
2023/09/07 01:05:04;;;;;;;7.82;4.80;;;;;;;-141.50;100.00;63355.56;5041610;28;20057;-78
2023/09/07 01:07:46;;;;;;;7.80;4.50;;;;;;;-141.50;100.00;63355.56;5021445;28;20049;-79
2023/09/07 01:10:14;;;;;;;6.40;4.07;;;;;;;-141.50;100.00;63355.56;5059930;28;20040;-78
2023/09/07 01:12:41;;;;;;;6.90;4.47;;;;;;;-141.50;100.00;63355.56;5039186;28;20120;-79
2023/09/07 01:15:09;;;;;;;6.55;4.28;;;;;;;-141.50;100.00;63355.56;5063631;28;20037;-79
2023/09/07 01:17:37;;;;;;;8.32;4.85;;;;;;;-141.50;100.00;63355.56;5046207;28;20104;-79
2023/09/07 01:20:11;;;;;;;8.73;4.80;;;;;;;-141.50;100.00;63355.56;5067902;28;20136;-78
2023/09/07 01:22:39;;;;;;;7.05;4.47;;;;;;;-141.50;100.00;63355.56;5039813;28;20067;-77
2023/09/07 01:25:07;;;;;;;8.27;4.78;;;;;;;-141.50;100.00;63355.56;5064436;28;20056;-78
2023/09/07 01:27:34;;;;;;;8.77;4.93;;;;;;;-141.50;100.00;63355.56;5025959;28;20048;-78
2023/09/07 01:30:03;;;;;;;8.85;4.70;;;;;;;-141.50;100.00;63355.56;5065751;28;20049;-79
2023/09/07 01:32:30;;;;;;;10.05;4.82;;;;;;;-141.50;100.00;63355.56;5044742;28;20044;-79
2023/09/07 01:34:58;;;;;;;7.30;4.50;;;;;;;-141.50;100.00;63355.56;5065563;28;20064;-78
2023/09/07 01:37:25;;;;;;;8.48;5.32;;;;;;;-141.50;100.00;63355.56;5060867;28;20067;-78
2023/09/07 01:39:52;;;;;;;11.82;5.50;;;;;;;-141.50;100.00;63355.56;5044025;28;20049;-78
2023/09/07 01:42:21;;;;;;;8.30;5.10;;;;;;;-141.50;100.00;63355.56;5045416;28;20049;-78
2023/09/07 01:44:48;;;;;;;6.50;4.55;;;;;;;-141.50;100.00;63355.56;5058026;28;20096;-77
2023/09/07 01:47:15;;;;;;;8.30;4.53;;;;;;;-141.50;100.00;63355.56;5040033;28;20052;-78
2023/09/07 01:49:42;;;;;;;8.15;4.78;;;;;;;-141.50;100.00;63355.56;5056371;28;20041;-78
2023/09/07 01:52:10;;;;;;;8.82;4.75;;;;;;;-141.50;100.00;63355.56;5043452;28;20048;-78
2023/09/07 01:54:37;;;;;;;8.25;5.20;;;;;;;-141.50;100.00;63355.56;5023781;28;20050;-79
2023/09/07 01:57:04;;;;;;;9.18;5.03;;;;;;;-141.50;100.00;63355.56;5047922;28;20080;-78
2023/09/07 01:59:31;;;;;;;8.15;5.07;;;;;;;-141.50;100.00;63355.56;5036258;28;20045;-78
2023/09/07 02:01:57;;;;;;;11.73;5.47;;;;;;;-141.50;100.00;63355.56;5055247;28;20056;-78
2023/09/07 02:04:24;;;;;;;8.38;4.80;;;;;;;-141.50;100.00;63355.56;5044593;28;20056;-79
2023/09/07 02:06:51;;;;;;;8.35;5.00;;;;;;;-141.50;100.00;63355.56;5045156;28;20105;-78
2023/09/07 02:09:18;;;;;;;8.00;5.10;;;;;;;-141.50;100.00;63355.56;5055671;28;20049;-78
2023/09/07 02:11:45;;;;;;;7.00;4.68;;;;;;;-141.50;100.00;63355.56;5043291;28;20402;-78
2023/09/07 02:14:12;;;;;;;8.88;4.82;;;;;;;-141.50;100.00;63355.56;5058277;28;21102;-78
2023/09/07 02:16:42;;;;;;;8.90;5.07;;;;;;;-141.50;100.00;63355.56;5040524;28;20053;-78
2023/09/07 02:19:09;;;;;;;7.40;4.68;;;;;;;-141.50;100.00;63355.56;5039329;28;20045;-78
2023/09/07 02:21:36;;;;;;;7.60;4.45;;;;;;;-141.50;100.00;63355.56;5046636;28;20545;-78
2023/09/07 02:24:03;;;;;;;7.60;4.45;;;;;;;-141.50;100.00;63355.56;5064096;28;20056;-78
2023/09/07 02:26:30;;;;;;;8.70;4.93;;;;;;;-141.50;100.00;63355.56;5047135;28;20037;-78
2023/09/07 02:28:58;;;;;;;8.00;4.43;;;;;;;-141.50;100.00;63355.56;5046001;28;20049;-78
2023/09/07 02:31:26;;;;;;;9.05;4.85;;;;;;;-141.50;100.00;63355.56;5047841;28;20064;-79
2023/09/07 02:33:53;;;;;;;8.35;4.93;;;;;;;-141.50;100.00;63355.56;5063774;28;20045;-78
2023/09/07 02:36:20;;;;;;;7.10;4.65;;;;;;;-141.50;100.00;63355.56;5046455;28;20041;-79
2023/09/07 02:38:47;;;;;;;8.43;4.55;;;;;;;-141.50;100.00;63355.56;5045102;28;20072;-78
2023/09/07 02:41:14;;;;;;;10.07;4.15;;;;;;;-141.50;100.00;63355.56;5046529;28;20079;-78
2023/09/07 02:43:41;;;;;;;9.75;4.80;;;;;;;-141.50;100.00;63355.56;5045510;28;20055;-78
2023/09/07 02:46:08;;;;;;;9.48;5.70;;;;;;;-141.50;100.00;63355.56;5037827;28;20105;-78
2023/09/07 02:48:35;;;;;;;9.32;4.93;;;;;;;-141.50;100.00;63355.56;5029860;28;20061;-79
2023/09/07 02:51:02;;;;;;;8.63;5.22;;;;;;;-141.50;100.00;63355.56;5042703;28;20071;-78
2023/09/07 02:53:30;;;;;;;8.35;5.07;;;;;;;-141.50;100.00;63355.56;5044791;28;20041;-79
2023/09/07 02:55:57;;;;;;;9.18;5.47;;;;;;;-141.50;100.00;63355.56;5045570;28;20056;-77
2023/09/07 02:58:25;;;;;;;7.43;4.25;;;;;;;-141.50;100.00;63355.56;5061941;28;20041;-79
2023/09/07 03:00:53;;;;;;;10.90;5.65;;;;;;;-141.50;100.00;63355.56;5046085;28;20067;-80
2023/09/07 03:03:22;;;;;;;8.38;4.50;;;;;;;-141.50;100.00;63355.56;5033464;28;20068;-79
2023/09/07 03:05:50;;;;;;;8.40;4.32;;;;;;;-141.50;100.00;63355.56;5069501;28;20089;-78
2023/09/07 03:08:17;;;;;;;8.32;4.90;;;;;;;-141.50;100.00;63355.56;5057811;28;20055;-78
2023/09/07 03:10:44;;;;;;;7.80;4.47;;;;;;;-141.50;100.00;63355.56;5047733;28;20041;-78
2023/09/07 03:13:11;;;;;;;8.98;4.82;;;;;;;-141.50;100.00;63355.56;5035914;28;20045;-78
2023/09/07 03:15:38;;;;;;;8.68;4.72;;;;;;;-141.50;100.00;63355.56;5049713;28;20041;-78
2023/09/07 03:18:09;;;;;;;9.88;4.50;;;;;;;-141.50;100.00;63355.56;5029678;28;20088;-78
2023/09/07 03:20:38;;;;;;;7.63;5.03;;;;;;;-141.50;100.00;63355.56;5029994;28;20107;-78
2023/09/07 03:23:05;;;;;;;6.75;4.07;;;;;;;-141.50;100.00;63355.56;5048841;28;20495;-78
2023/09/07 03:25:34;;;;;;;7.40;4.57;;;;;;;-141.50;100.00;63355.56;5036747;28;20060;-78
2023/09/07 03:28:01;;;;;;;7.43;4.30;;;;;;;-141.50;100.00;63355.56;5062778;28;20040;-77
2023/09/07 03:30:28;;;;;;;7.85;4.65;;;;;;;-141.50;100.00;63355.56;5039439;28;20128;-78
2023/09/07 03:32:54;;;;;;;7.32;4.35;;;;;;;-141.50;100.00;63355.56;5022636;28;20041;-78
2023/09/07 03:35:21;;;;;;;8.35;4.43;;;;;;;-141.50;100.00;63355.56;5038901;28;20052;-77
2023/09/07 03:37:48;;;;;;;7.65;4.50;;;;;;;-141.50;100.00;63355.56;5030252;28;20045;-78
2023/09/07 03:40:15;;;;;;;6.43;3.80;;;;;;;-141.50;100.00;63355.56;5021883;28;20048;-78
2023/09/07 03:42:43;;;;;;;9.93;4.00;;;;;;;-141.50;100.00;63355.56;5068634;28;20041;-77
2023/09/07 03:45:11;;;;;;;6.32;4.25;;;;;;;-141.50;100.00;63355.56;5032840;28;20049;-77
2023/09/07 03:47:38;;;;;;;6.80;3.92;;;;;;;-141.50;100.00;63355.56;5043961;28;20534;-78
2023/09/07 03:50:06;;;;;;;7.25;4.28;;;;;;;-141.50;100.00;63355.56;5054319;28;20045;-78
2023/09/07 03:52:33;;;;;;;8.45;3.95;;;;;;;-141.50;100.00;63355.56;5009752;28;20045;-78
2023/09/07 03:55:03;;;;;;;7.25;4.28;;;;;;;-141.50;100.00;63355.56;5038000;28;20052;-78
2023/09/07 03:57:30;;;;;;;7.30;4.38;;;;;;;-141.50;100.00;63355.56;5057399;28;20053;-77
2023/09/07 03:59:57;;;;;;;7.95;4.10;;;;;;;-141.50;100.00;63355.56;5033675;28;20055;-78
2023/09/07 04:02:24;;;;;;;6.13;3.78;;;;;;;-141.50;100.00;63355.56;5039655;28;21000;-78
2023/09/07 04:04:55;;;;;;;7.97;4.35;;;;;;;-141.50;100.00;63355.56;5038419;28;20060;-79
2023/09/07 04:07:22;;;;;;;5.32;3.65;;;;;;;-141.50;100.00;63355.56;5041416;28;20045;-79
2023/09/07 04:09:50;;;;;;;7.30;3.97;;;;;;;-141.50;100.00;63355.56;5023007;28;20140;-79
2023/09/07 04:12:17;;;;;;;7.75;4.13;;;;;;;-141.50;100.00;63355.56;5041434;28;20053;-78
2023/09/07 04:14:44;;;;;;;7.80;3.92;;;;;;;-141.50;100.00;63355.56;5059395;28;20564;-79
2023/09/07 04:17:12;;;;;;;6.95;4.28;;;;;;;-141.50;100.00;63355.56;5041274;28;20115;-79
2023/09/07 04:19:43;;;;;;;6.20;3.92;;;;;;;-141.50;100.00;63355.56;5033986;28;20044;-80
2023/09/07 04:22:13;;;;;;;7.57;4.05;;;;;;;-141.50;100.00;63355.56;5038565;28;20697;-79
2023/09/07 04:24:40;;;;;;;8.32;4.47;;;;;;;-141.50;100.00;63355.56;5046029;28;20040;-79
2023/09/07 04:27:08;;;;;;;7.55;4.15;;;;;;;-141.50;100.00;63355.56;5058906;28;20041;-80
2023/09/07 04:29:35;;;;;;;7.95;3.90;;;;;;;-141.50;100.00;63355.56;5028699;28;20052;-79
2023/09/07 04:32:02;;;;;;;6.47;3.78;;;;;;;-141.50;100.00;63355.56;5032653;28;20053;-77
2023/09/07 04:34:31;;;;;;;6.70;3.80;;;;;;;-141.50;100.00;63355.56;5028979;28;20038;-78
2023/09/07 04:36:58;;;;;;;8.73;4.30;;;;;;;-141.50;100.00;63355.56;5045408;28;20136;-78
2023/09/07 04:39:25;;;;;;;7.18;3.90;;;;;;;-141.50;100.00;63355.56;5032858;28;20045;-79
2023/09/07 04:41:52;;;;;;;6.15;3.88;;;;;;;-141.50;100.00;63355.56;5025475;28;20075;-79
2023/09/07 04:44:20;;;;;;;8.68;4.57;;;;;;;-141.50;100.00;63355.56;5037868;28;20195;-80
2023/09/07 04:46:47;;;;;;;6.07;3.63;;;;;;;-141.50;100.00;63355.56;5042143;28;20095;-79
2023/09/07 04:49:14;;;;;;;6.72;3.72;;;;;;;-141.50;100.00;63355.56;5063166;28;20059;-79
2023/09/07 04:51:40;;;;;;;8.50;4.47;;;;;;;-141.50;100.00;63355.56;5042820;28;20055;-79
2023/09/07 04:54:07;;;;;;;8.00;4.40;;;;;;;-141.50;100.00;63355.56;5026458;28;20071;-79
2023/09/07 04:56:34;;;;;;;9.25;4.25;;;;;;;-141.50;100.00;63355.56;5040420;28;20071;-78
2023/09/07 04:59:01;;;;;;;8.65;4.70;;;;;;;-141.50;100.00;63355.56;5054346;28;20052;-78
2023/09/07 05:01:28;;;;;;;7.43;4.30;;;;;;;-141.50;100.00;63355.56;5058044;28;20051;-78
2023/09/07 05:03:56;;;;;;;10.07;4.65;;;;;;;-141.50;100.00;63355.56;5035567;28;20049;-78
2023/09/07 05:06:23;;;;;;;7.50;4.18;;;;;;;-141.50;100.00;63355.56;5048196;28;20037;-78
2023/09/07 05:08:51;;;;;;;8.00;4.53;;;;;;;-141.50;100.00;63355.56;5040175;28;20529;-78
2023/09/07 05:11:18;;;;;;;7.28;4.03;;;;;;;-141.50;100.00;63355.56;5060146;28;20107;-79
2023/09/07 05:13:45;;;;;;;8.18;4.40;;;;;;;-141.50;100.00;63355.56;5039870;28;20048;-78
2023/09/07 05:16:11;;;;;;;9.55;4.25;;;;;;;-141.50;100.00;63355.56;5023803;28;20113;-78
2023/09/07 05:18:41;;;;;;;6.10;3.97;;;;;;;-141.50;100.00;63355.56;5034885;28;20041;-80
2023/09/07 05:21:15;;;;;;;8.20;4.60;;;;;;;-141.50;100.00;63355.56;5028305;28;20104;-81
2023/09/07 05:23:42;;;;;;;8.10;4.25;;;;;;;-141.50;100.00;63355.56;5037907;28;20112;-79
2023/09/07 05:26:09;;;;;;;8.68;4.65;;;;;;;-141.50;100.00;63355.56;5037656;28;20209;-79
2023/09/07 05:28:36;;;;;;;9.57;4.32;;;;;;;-141.50;100.00;63355.56;5019612;28;20494;-81
2023/09/07 05:31:03;;;;;;;8.73;4.80;;;;;;;-141.50;100.00;63355.56;5039936;28;20096;-80
2023/09/07 05:33:31;;;;;;;9.30;4.65;;;;;;;-141.50;100.00;63355.56;5042114;28;20045;-79
2023/09/07 05:35:59;;;;;;;7.80;4.30;;;;;;;-141.50;100.00;63355.56;5026660;28;20053;-80
2023/09/07 05:38:25;;;;;;;7.68;4.18;;;;;;;-141.50;100.00;63355.56;5036925;28;20304;-80
2023/09/07 05:40:54;;;;;;;8.73;4.50;;;;;;;-141.50;100.00;63355.56;5056663;28;20048;-80
2023/09/07 05:43:23;;;;;;;10.35;4.40;;;;;;;-141.50;100.00;63355.56;5035512;28;20048;-80
2023/09/07 05:45:50;;;;;;;7.72;4.13;;;;;;;-141.50;100.00;63355.56;5040843;28;20236;-80
2023/09/07 05:48:17;;;;;;;5.90;3.88;;;;;;;-141.50;100.00;63355.56;5038950;28;20033;-80
2023/09/07 05:50:45;;;;;;;8.32;4.45;;;;;;;-141.50;100.00;63355.56;5025137;28;20053;-79
2023/09/07 05:53:12;;;;;;;7.30;4.45;;;;;;;-141.50;100.00;63355.56;5041080;28;20406;-79
2023/09/07 05:55:39;;;;;;;7.68;4.63;;;;;;;-141.50;100.00;63355.56;5040457;28;20068;-80
2023/09/07 05:58:08;;;;;;;9.18;5.47;;;;;;;-141.50;100.00;63355.56;5059509;28;20180;-79
2023/09/07 06:00:39;;;;;;;7.25;4.88;;;;;;;-141.50;100.00;63355.56;5029877;28;20113;-79
2023/09/07 06:03:10;;;;;;;9.07;5.13;;;;;;;-141.50;100.00;63355.56;5041553;28;20052;-80
2023/09/07 06:05:39;;;;;;;8.23;5.15;;;;;;;-141.50;100.00;63355.56;5040968;28;20041;-80
2023/09/07 06:08:07;;;;;;;9.88;5.88;;;;;;;-141.50;100.00;63355.56;5019446;28;20064;-79
2023/09/07 06:10:35;;;;;;;8.95;5.63;;;;;;;-141.50;100.00;63355.56;5043976;28;20076;-79
2023/09/07 06:13:03;;;;;;;8.50;5.20;;;;;;;-141.50;100.00;63355.56;5037263;28;20132;-79
2023/09/07 06:15:31;;;;;;;11.02;5.50;;;;;;;-141.50;100.00;63355.56;5043824;28;20699;-80
2023/09/07 06:17:58;;;;;;;10.80;5.55;;;;;;;-141.50;100.00;63355.56;5037246;28;20073;-81
2023/09/07 06:20:25;;;;;;;10.15;4.55;;;;;;;-141.50;100.00;63355.56;5026982;28;20044;-81
2023/09/07 06:22:53;;;;;;;9.15;4.90;;;;;;;-141.50;100.00;63355.56;5034795;28;20129;-79
2023/09/07 06:25:22;;;;;;;9.40;5.32;;;;;;;-141.50;100.00;63355.56;5026079;28;20044;-79
2023/09/07 06:27:49;;;;;;;13.88;5.80;;;;;;;-141.50;100.00;63355.56;5040188;28;20128;-79
2023/09/07 06:30:16;;;;;;;9.23;5.40;;;;;;;-141.50;100.00;63355.56;5035892;28;20051;-78
2023/09/07 06:32:44;;;;;;;9.00;5.13;;;;;;;-141.50;100.00;63355.56;5037901;28;20100;-80
2023/09/07 06:35:11;;;;;;;9.88;5.28;;;;;;;-141.50;100.00;63355.56;5031174;28;20396;-80
2023/09/07 06:37:40;;;;;;;8.85;5.43;;;;;;;-141.50;100.00;63355.56;5034888;28;20056;-79
2023/09/07 06:40:09;;;;;;;10.65;5.30;;;;;;;-141.50;100.00;63355.56;5038380;28;20037;-79
2023/09/07 06:42:37;;;;;;;11.73;5.05;;;;;;;-141.50;100.00;63355.56;5024127;28;20634;-79
2023/09/07 06:45:10;;;;;;;9.95;5.03;;;;;;;-141.50;100.00;63355.56;5042125;28;20041;-79
2023/09/07 06:47:37;;;;;;;8.93;4.90;;;;;;;-141.50;100.00;63355.56;5038496;28;20049;-80
2023/09/07 06:50:06;;;;;;;8.13;4.93;;;;;;;-141.50;100.00;63355.56;5057960;28;21243;-80
2023/09/07 06:52:33;;;;;;;8.45;4.85;;;;;;;-141.50;100.00;63355.56;5043362;28;20096;-80
2023/09/07 06:55:00;;;;;;;12.27;4.80;;;;;;;-141.50;100.00;63355.56;5050760;28;20041;-80
2023/09/07 06:57:27;;;;;;;6.85;4.50;;;;;;;-141.50;100.00;63355.56;5051645;28;20045;-81
2023/09/07 06:59:54;;;;;;;6.40;3.80;;;;;;;-141.50;100.00;63355.56;5052041;28;20049;-81
2023/09/07 07:02:21;;;;;;;7.25;3.70;;;;;;;-141.50;100.00;63355.56;5048443;28;20045;-81
2023/09/07 07:04:49;;;;;;;6.50;3.92;;;;;;;-141.50;100.00;63355.56;5017412;28;20191;-81
2023/09/07 07:07:17;;;;;;;7.63;4.10;;;;;;;-141.50;100.00;63355.56;5041703;28;20044;-80
2023/09/07 07:09:44;;;;;;;8.27;4.10;;;;;;;-141.50;100.00;63355.56;5048303;28;20044;-80
2023/09/07 07:12:12;;;;;;;6.38;3.67;;;;;;;-141.50;100.00;63355.56;5066882;28;20045;-81
2023/09/07 07:14:39;;;;;;;9.35;4.00;;;;;;;-141.50;100.00;63355.56;5042265;28;20100;-80
2023/09/07 07:17:06;;;;;;;5.65;3.83;;;;;;;-141.50;100.00;63355.56;5047318;28;20049;-80
2023/09/07 07:19:34;;;;;;;6.97;3.83;;;;;;;-141.50;100.00;63355.56;5044277;28;20121;-81
2023/09/07 07:22:02;;;;;;;6.97;3.50;;;;;;;-141.50;100.00;63355.56;5043055;28;20072;-80
2023/09/07 07:24:31;;;;;;;7.22;3.92;;;;;;;-141.50;100.00;63355.56;5046349;28;20048;-80
2023/09/07 07:26:57;;;;;;;9.05;3.70;;;;;;;-141.50;100.00;63355.56;5031375;28;20068;-79
2023/09/07 07:29:25;;;;;;;5.90;3.40;;;;;;;-141.50;100.00;63355.56;5017104;28;20040;-79
2023/09/07 07:31:52;;;;;;;7.18;3.92;;;;;;;-141.50;100.00;63355.56;5017023;28;20052;-79
2023/09/07 07:34:19;;;;;;;5.85;3.40;;;;;;;-141.50;100.00;63355.56;5053240;28;20091;-79
2023/09/07 07:36:48;;;;;;;4.50;3.08;;;;;;;-141.50;100.00;63355.56;5036568;28;20048;-79
2023/09/07 07:39:15;;;;;;;4.85;3.28;;;;;;;-141.50;100.00;63355.56;5038514;28;20045;-79
2023/09/07 07:41:45;;;;;;;5.47;3.10;;;;;;;-141.50;100.00;63355.56;5041738;28;20059;-80
2023/09/07 07:44:12;;;;;;;4.45;2.90;;;;;;;-141.50;100.00;63355.56;5049085;28;20041;-79
2023/09/07 07:46:39;;;;;;;6.13;3.38;;;;;;;-141.50;100.00;63355.56;5056892;28;20044;-79
2023/09/07 07:49:06;;;;;;;5.05;2.92;;;;;;;-141.50;100.00;63355.56;5026879;28;20067;-80
2023/09/07 07:51:33;;;;;;;5.38;3.03;;;;;;;-141.50;100.00;63355.56;5042249;28;20048;-79
2023/09/07 07:54:00;;;;;;;5.22;3.00;;;;;;;-141.50;100.00;63355.56;5042751;28;20108;-80
2023/09/07 07:56:27;;;;;;;5.40;3.10;;;;;;;-141.50;100.00;63355.56;5043482;28;20040;-81
2023/09/07 07:58:57;;;;;;;4.97;3.22;;;;;;;-141.50;100.00;63355.56;5041157;28;20089;-81
2023/09/07 08:01:26;;;;;;;5.63;3.00;;;;;;;-141.50;100.00;63355.56;5060638;28;20540;-81
2023/09/07 08:03:54;;;;;;;8.27;3.78;;;;;;;-141.50;100.00;63355.56;5039688;28;20582;-81
2023/09/07 08:06:22;;;;;;;6.78;3.05;;;;;;;-141.50;100.00;63355.56;5023461;28;20040;-81
2023/09/07 08:08:49;;;;;;;4.55;2.97;;;;;;;-141.50;100.00;63355.56;5023768;28;20045;-80
2023/09/07 08:11:16;;;;;;;5.32;3.00;;;;;;;-141.50;100.00;63355.56;5041481;28;20048;-80
2023/09/07 08:13:46;;;;;;;4.28;2.88;;;;;;;-141.50;100.00;63355.56;5041448;28;20044;-79
2023/09/07 08:16:13;;;;;;;4.43;2.80;;;;;;;-141.50;100.00;63355.56;5041216;28;20048;-80
2023/09/07 08:18:41;;;;;;;4.88;2.80;;;;;;;-141.50;100.00;63355.56;5041558;28;20060;-80
2023/09/07 08:21:09;;;;;;;4.72;2.60;;;;;;;-141.50;100.00;63355.56;5035423;28;20582;-80
2023/09/07 08:23:36;;;;;;;4.93;3.10;;;;;;;-141.50;100.00;63355.56;5014159;28;20473;-79
2023/09/07 08:26:05;;;;;;;4.53;2.67;;;;;;;-141.50;100.00;63355.56;5032399;28;20492;-79
2023/09/07 08:28:32;;;;;;;7.55;2.92;;;;;;;-141.50;100.00;63355.56;5019149;28;20067;-79
2023/09/07 08:31:00;;;;;;;4.43;2.80;;;;;;;-141.50;100.00;63355.56;5051103;28;20048;-79
2023/09/07 08:33:28;;;;;;;6.05;3.15;;;;;;;-141.50;100.00;63355.56;5053978;28;20506;-79
2023/09/07 08:35:56;;;;;;;6.32;2.85;;;;;;;-141.50;100.00;63355.56;5053604;28;20040;-79
2023/09/07 08:38:27;;;;;;;3.88;2.60;;;;;;;-141.50;100.00;63355.56;5038248;28;20063;-79
2023/09/07 08:41:01;;;;;;;4.10;2.58;;;;;;;-141.50;100.00;63355.56;5054495;28;20048;-79
2023/09/07 08:43:29;;;;;;;4.13;2.70;;;;;;;-141.50;100.00;63355.56;5055476;28;21301;-79
2023/09/07 08:46:04;;;;;;;4.40;2.85;;;;;;;-141.50;100.00;63355.56;5038856;28;20305;-79
2023/09/07 08:48:32;;;;;;;;;;;;;;;-141.50;100.00;63355.56;5039685;28;20075;-79
2023/09/07 08:51:00;;;;;;;5.65;2.65;;;;;;;-141.50;100.00;63355.56;5060701;28;20438;-80
2023/09/07 08:53:30;;;;;;;3.92;2.55;;;;;;;-141.50;100.00;63355.56;5035331;28;20538;-80
2023/09/07 08:55:56;;;;;;;5.40;2.50;;;;;;;-141.50;100.00;63355.56;5058693;28;21593;-79
2023/09/07 08:58:23;;;;;;;3.97;2.50;;;;;;;-141.50;100.00;63355.56;5036796;28;20071;-79
2023/09/07 09:00:51;;;;;;;5.43;2.47;;;;;;;-141.50;100.00;63355.56;5036822;28;20499;-79
2023/09/07 09:03:18;;;;;;;4.45;2.78;;;;;;;-141.50;100.00;63355.56;5040429;28;20049;-80
2023/09/07 09:05:50;;;;;;;5.50;2.70;;;;;;;-141.50;100.00;63355.56;5061521;28;20049;-79
2023/09/07 09:08:24;;;;;;;4.22;2.50;;;;;;;-141.50;100.00;63355.56;5022175;28;20112;-79
2023/09/07 09:11:03;;;;;;;4.68;2.78;;;;;;;-141.50;100.00;63355.56;5037482;28;20049;-79
2023/09/07 09:13:31;;;;;;;5.30;2.67;;;;;;;-141.50;100.00;63355.56;5028703;28;20045;-79
2023/09/07 09:16:01;;;;;;;3.78;2.58;;;;;;;-141.50;100.00;63355.56;5025761;28;20045;-78
2023/09/07 09:18:28;;;;;;;4.05;2.80;;;;;;;-141.50;100.00;63355.56;5051634;28;20045;-79
2023/09/07 09:20:58;;;;;;;4.65;2.60;;;;;;;-141.50;100.00;63355.56;5036705;28;20086;-79
2023/09/07 09:23:37;;;;;;;3.80;2.20;;;;;;;-141.50;100.00;63355.56;5055757;28;20060;-79
2023/09/07 09:26:05;;;;;;;4.47;2.60;;;;;;;-141.50;100.00;63355.56;5055015;28;20053;-79
2023/09/07 09:28:35;;;;;;;5.45;2.40;;;;;;;-141.50;100.00;63355.56;5056673;28;20037;-79
2023/09/07 09:31:03;;;;;;;5.97;2.60;;;;;;;-141.50;100.00;63355.56;5054737;28;20057;-79
2023/09/07 09:33:31;;;;;;;4.05;2.28;;;;;;;-141.50;100.00;63355.56;5057926;28;20095;-79
2023/09/07 09:35:58;;;;;;;3.55;2.60;;;;;;;-141.50;100.00;63355.56;5033981;28;20163;-80
2023/09/07 09:38:25;;;;;;;3.33;2.17;;;;;;;-141.50;100.00;63355.56;5039335;28;20045;-80
2023/09/07 09:40:52;;;;;;;4.05;2.28;;;;;;;-141.50;100.00;63355.56;5040662;28;20044;-80
2023/09/07 09:43:20;;;;;;;3.88;2.33;;;;;;;-141.50;100.00;63355.56;5032880;28;20045;-79
2023/09/07 09:45:50;;;;;;;3.00;2.10;;;;;;;-141.50;100.00;63355.56;5031347;28;20124;-79
2023/09/07 09:48:19;;;;;;;3.22;1.98;;;;;;;-141.50;100.00;63355.56;5059245;28;20045;-79
2023/09/07 09:50:48;;;;;;;2.97;1.85;;;;;;;-141.50;100.00;63355.56;5050052;28;20044;-80
2023/09/07 09:53:20;;;;;;;4.43;1.95;;;;;;;-141.50;100.00;63355.56;5029044;28;20037;-79
2023/09/07 09:55:48;;;;;;;3.80;2.03;;;;;;;-141.50;100.00;63355.56;5038833;28;20049;-79
2023/09/07 09:58:16;;;;;;;4.53;1.98;;;;;;;-141.50;100.00;63355.56;5059554;28;20096;-80
2023/09/07 10:00:45;;;;;;;3.63;2.03;;;;;;;-141.50;100.00;63355.56;5041943;28;20299;-79
2023/09/07 10:03:17;;;;;;;3.70;2.20;;;;;;;-141.50;100.00;63355.56;5053693;28;20041;-80
2023/09/07 10:05:46;;;;;;;3.88;2.20;;;;;;;-141.50;100.00;63355.56;5057496;28;20430;-80
2023/09/07 10:08:15;;;;;;;2.75;1.75;;;;;;;-141.50;100.00;63355.56;5031250;28;20060;-80
2023/09/07 10:10:43;;;;;;;3.45;2.00;;;;;;;-141.50;100.00;63355.56;5040096;28;20045;-80
2023/09/07 10:13:13;;;;;;;2.92;1.88;;;;;;;-141.50;100.00;63355.56;5044445;28;20617;-80
2023/09/07 10:15:41;;;;;;;2.90;2.03;;;;;;;-141.50;100.00;63355.56;5032246;28;20132;-79
2023/09/07 10:18:16;;;;;;;3.20;2.10;;;;;;;-141.50;100.00;63355.56;5035818;28;20048;-79
2023/09/07 10:20:48;;;;;;;;;;;;;;;-141.50;100.00;63355.56;5052092;28;20117;-80
2023/09/07 10:23:15;;;;;;;3.67;1.90;;;;;;;-141.50;100.00;63355.56;5030794;28;20362;-80
2023/09/07 10:25:47;;;;;;;2.90;1.90;;;;;;;-141.50;100.00;63355.56;5044146;28;20044;-79
2023/09/07 10:28:25;;;;;;;3.08;1.98;;;;;;;-141.50;100.00;63355.56;5046119;28;20818;-79
2023/09/07 10:30:59;;;;;;;3.15;1.85;;;;;;;-141.50;100.00;63355.56;5030449;28;20045;-79
2023/09/07 10:33:26;;;;;;;2.65;1.80;;;;;;;-141.50;100.00;63355.56;5032755;28;20048;-80
2023/09/07 10:35:53;;;;;;;3.38;2.17;;;;;;;-141.50;100.00;63355.56;5039328;28;20049;-79
2023/09/07 10:38:20;;;;;;;2.75;2.10;;;;;;;-141.50;100.00;63355.56;5049516;28;20036;-80
2023/09/07 10:40:47;;;;;;;3.35;1.80;;;;;;;-141.50;100.00;63355.56;5049326;28;20083;-80
2023/09/07 10:43:14;;;;;;;2.42;1.80;;;;;;;-141.50;100.00;63355.56;5068893;28;20059;-80
2023/09/07 10:45:44;;;;;;;3.78;2.05;;;;;;;-141.50;100.00;63355.56;5055949;28;20665;-80
2023/09/07 10:48:12;;;;;;;2.95;1.98;;;;;;;-141.50;100.00;63355.56;5061371;28;20053;-80
2023/09/07 10:50:44;;;;;;;4.80;1.98;;;;;;;-141.50;100.00;63355.56;5055554;28;20064;-80
2023/09/07 10:53:14;;;;;;;2.75;1.90;;;;;;;-141.50;100.00;63355.56;5029062;28;20040;-80
2023/09/07 10:55:44;;;;;;;1.90;1.70;;;;;;;-141.50;100.00;63355.56;5043301;28;20036;-80
2023/09/07 10:58:11;;;;;;;3.67;1.92;;;;;;;-141.50;100.00;63355.56;5069900;28;20041;-80
2023/09/07 11:00:37;;;;;;;2.72;1.70;;;;;;;-141.50;100.00;63355.56;5041019;28;20527;-79
2023/09/07 11:03:09;;;;;;;2.83;1.90;;;;;;;-141.50;100.00;63355.56;5052597;28;20052;-79
2023/09/07 11:05:38;;;;;;;2.15;1.50;;;;;;;-141.50;100.00;63355.56;5034486;28;20526;-79
2023/09/07 11:08:06;;;;;;;2.33;1.75;;;;;;;-141.50;100.00;63355.56;5047711;28;20059;-80
2023/09/07 11:10:34;;;;;;;2.85;1.60;;;;;;;-141.50;100.00;63355.56;5061851;28;20057;-79
2023/09/07 11:13:04;;;;;;;2.60;1.85;;;;;;;-141.50;100.00;63355.56;5045538;28;20778;-80